Data for 04/12/2015

Time Sea-Level Adjusted Pressure Absolute Pressure Temperature Relative Humidity Dew Point   
(mb) (inHg) (mb) (inHg) (C) (F) (%) (C) (F)
00:05 1012 29.88 841 24.83 0.1 32.2 93 -0.9 30.4
00:10 1012 29.88 841 24.83 0 32.1 92 -1.1 30
00:15 1012 29.88 841 24.83 0.1 32.1 91 -1.3 29.7
00:20 1012 29.88 841 24.83 0.2 32.4 91 -1.2 29.9
00:25 1012 29.88 842 24.86 0.3 32.6 90 -1.1 30
00:30 1013 29.91 842 24.86 0.4 32.8 90 -1 30.2
00:35 1013 29.91 842 24.86 0.5 32.9 90 -0.9 30.3
00:40 1013 29.91 842 24.86 0.5 32.9 89 -1 30.1
00:45 1013 29.91 842 24.86 0.6 33 90 -0.9 30.3
00:50 1013 29.91 842 24.86 0.6 33 89 -1 30.2
00:55 1013 29.91 842 24.86 0.5 32.9 89 -1.2 29.9
01:00 1013 29.91 842 24.86 0.6 33.1 84 -1.9 28.7
01:05 1013 29.91 842 24.86 0.8 33.5 79 -2.4 27.7
01:10 1013 29.91 842 24.86 0.8 33.5 79 -2.4 27.8
01:15 1013 29.91 842 24.86 0.6 33.1 82 -2.1 28.2
01:20 1013 29.91 842 24.86 0.5 33 78 -2.9 26.8
01:25 1013 29.91 842 24.86 0.7 33.2 71 -4 24.7
01:30 1013 29.91 842 24.86 0.8 33.5 67 -4.5 23.8
01:35 1013 29.91 842 24.86 0.9 33.6 70 -4.1 24.7
01:40 1013 29.91 842 24.86 0.8 33.4 70 -4 24.8
01:45 1013 29.91 842 24.86 0.5 32.9 71 -4.2 24.5
01:50 1013 29.91 842 24.86 0.4 32.6 72 -4 24.7
01:55 1013 29.91 842 24.86 0.4 32.7 71 -4.3 24.2
02:00 1013 29.91 842 24.86 0.3 32.5 73 -3.9 24.9
02:05 1013 29.91 842 24.86 -0.1 31.8 76 -3.8 25.2
02:10 1013 29.91 842 24.86 -0.2 31.6 74 -4.3 24.2
02:15 1013 29.91 842 24.86 -0.1 31.7 74 -4.3 24.3
02:20 1013 29.91 842 24.86 -0.2 31.7 75 -4.1 24.6
02:25 1013 29.91 842 24.86 -0.1 31.9 71 -4.6 23.7
02:30 1013 29.91 842 24.86 0.1 32.1 71 -4.7 23.6
02:35 1013 29.91 842 24.86 0.1 32.2 70 -4.7 23.6
02:40 1013 29.91 842 24.86 0.1 32.1 71 -4.5 23.8
02:45 1013 29.91 842 24.86 0 32 70 -4.9 23.2
02:50 1013 29.91 842 24.86 -0 32 70 -4.8 23.4
02:55 1013 29.91 842 24.86 -0.1 31.8 72 -4.6 23.7
03:00 1013 29.91 842 24.86 -0.2 31.6 71 -4.9 23.1
03:05 1013 29.91 843 24.89 -0.2 31.6 71 -4.9 23.2
03:10 1013 29.91 843 24.89 -0.2 31.6 73 -4.5 23.8
03:15 1013 29.91 843 24.89 -0.3 31.5 73 -4.4 24
03:20 1014 29.94 843 24.89 -0.4 31.3 75 -4.3 24.2
03:25 1014 29.94 843 24.89 -0.5 31.1 75 -4.3 24.2
03:30 1014 29.94 843 24.89 -0.7 30.8 75 -4.5 23.8
03:35 1014 29.94 843 24.89 -0.7 30.7 74 -4.8 23.4
03:40 1014 29.94 843 24.89 -0.8 30.6 73 -5 23
03:45 1014 29.94 843 24.89 -0.7 30.7 73 -4.9 23.2
03:50 1014 29.94 843 24.89 -0.7 30.7 72 -5.2 22.7
03:55 1014 29.94 843 24.89 -0.8 30.6 73 -5 22.9
04:00 1014 29.94 843 24.89 -0.9 30.4 73 -5.1 22.8
04:05 1014 29.94 843 24.89 -0.8 30.5 73 -5.1 22.9
04:10 1014 29.94 843 24.89 -0.8 30.6 74 -4.9 23.1
04:15 1014 29.94 843 24.89 -0.8 30.6 73 -5 23
04:20 1014 29.94 843 24.89 -0.8 30.6 73 -5.1 22.8
04:25 1014 29.94 844 24.92 -0.8 30.5 73 -5.1 22.9
04:30 1014 29.94 844 24.92 -0.8 30.5 72 -5.3 22.5
04:35 1014 29.94 844 24.92 -0.7 30.7 73 -5 23
04:40 1014 29.94 844 24.92 -0.6 30.9 73 -4.9 23.1
04:45 1014 29.94 844 24.92 -0.8 30.6 74 -4.8 23.3
04:50 1014 29.94 844 24.92 -0.9 30.3 75 -4.8 23.4
04:55 1015 29.97 844 24.92 -1.1 30.1 76 -4.8 23.4
05:00 1015 29.97 844 24.92 -1.3 29.7 76 -5 22.9
05:05 1015 29.97 844 24.92 -1.5 29.4 77 -5 23.1
05:10 1015 29.97 844 24.92 -1.6 29.2 76 -5.2 22.6
05:15 1015 29.97 844 24.92 -1.6 29.1 76 -5.3 22.5
05:20 1015 29.97 844 24.92 -1.6 29.2 73 -5.8 21.5
05:25 1015 29.97 844 24.92 -1.4 29.5 72 -5.8 21.6
05:30 1015 29.97 844 24.92 -1.4 29.5 72 -5.8 21.5
05:35 1015 29.97 844 24.92 -1.5 29.3 71 -6 21.2
05:40 1015 29.97 844 24.92 -1.5 29.3 71 -6.2 20.9
05:45 1015 29.97 844 24.92 -1.6 29.1 69 -6.5 20.4
05:50 1015 29.97 844 24.92 -1.6 29.1 69 -6.6 20
05:55 1015 29.97 844 24.92 -1.5 29.3 68 -6.7 19.9
06:00 1015 29.97 845 24.95 -1.5 29.2 68 -6.7 20
06:05 1016 30 845 24.95 -1.5 29.3 66 -6.9 19.5
06:10 1016 30 845 24.95 -1.4 29.4 66 -7 19.3
06:15 1016 30 845 24.95 -1.3 29.7 66 -6.9 19.5
06:20 1016 30 845 24.95 -1.2 29.8 67 -6.6 20
06:25 1016 30 845 24.95 -1.2 29.8 66 -6.7 19.9
06:30 1016 30 845 24.95 -1.2 29.9 66 -6.8 19.7
06:35 1016 30 845 24.95 -1.1 30 65 -6.8 19.7
06:40 1016 30 845 24.95 -1 30.1 67 -6.5 20.4
06:45 1016 30 846 24.98 -1 30.3 64 -6.9 19.5
06:50 1016 30 846 24.98 -0.9 30.4 64 -6.9 19.6
06:55 1017 30.03 846 24.98 -0.9 30.4 63 -7 19.3
07:00 1017 30.03 846 24.98 -0.8 30.5 59 -7.9 17.8
07:05 1017 30.03 846 24.98 -0.7 30.7 61 -7.2 19
07:10 1017 30.03 846 24.98 -0.8 30.6 62 -7.3 18.9
07:15 1017 30.03 846 24.98 -0.9 30.5 60 -7.6 18.3
07:20 1017 30.03 846 24.98 -0.8 30.5 60 -7.6 18.2
07:25 1017 30.03 846 24.98 -0.8 30.6 61 -7.4 18.6
07:30 1017 30.03 846 24.98 -0.8 30.6 61 -7.3 18.8
07:35 1017 30.03 847 25.01 -0.6 30.9 61 -7.2 19
07:40 1017 30.03 847 25.01 0.1 32.2 60 -6.8 19.7
07:45 1017 30.03 847 25.01 0.8 33.4 59 -6.4 20.4
07:50 1018 30.06 847 25.01 0.8 33.4 60 -6.1 21
07:55 1018 30.06 847 25.01 0.9 33.6 58 -6.4 20.5
08:00 1018 30.06 847 25.01 1 33.8 56 -6.8 19.7
08:05 1018 30.06 847 25.01 0.8 33.4 57 -6.9 19.6
08:10 1018 30.06 847 25.01 0.7 33.2 57 -6.9 19.6
08:15 1018 30.06 847 25.01 0.5 33 56 -7.4 18.8
08:20 1018 30.06 847 25.01 0.4 32.7 56 -7.5 18.6
08:25 1018 30.06 847 25.01 0.6 33 52 -8.1 17.4
08:30 1018 30.06 847 25.01 1 33.7 52 -7.7 18.1
08:35 1018 30.06 847 25.01 1.6 34.8 51 -7.4 18.6
08:40 1018 30.06 847 25.01 1.6 34.9 49 -8.1 17.4
08:45 1018 30.06 847 25.01 1.9 35.4 48 -8.1 17.3
08:50 1018 30.06 847 25.01 1.9 35.4 48 -8 17.5
08:55 1018 30.06 847 25.01 2 35.6 47 -8 17.5
09:00 1018 30.06 847 25.01 2.1 35.8 44 -9 15.7
09:05 1018 30.06 847 25.01 1.8 35.3 40 -10.3 13.4
09:10 1018 30.06 847 25.01 1.5 34.6 46 -8.9 16
09:15 1018 30.06 847 25.01 1.5 34.7 47 -8.7 16.3
09:20 1018 30.06 847 25.01 1.4 34.5 44 -9.7 14.5
09:25 1018 30.06 847 25.01 1.2 34.1 44 -9.7 14.5
09:30 1018 30.06 847 25.01 1.6 34.8 43 -9.6 14.8
09:35 1018 30.06 848 25.04 2.4 36.4 37 -10.8 12.5
09:40 1018 30.06 847 25.01 2.5 36.5 41 -9.4 15.1
09:45 1018 30.06 848 25.04 2.1 35.8 39 -10.3 13.5
09:50 1018 30.06 848 25.04 1.3 34.3 42 -10.3 13.5
09:55 1018 30.06 848 25.04 1.2 34.2 42 -10.4 13.4
10:00 1018 30.06 848 25.04 1.8 35.2 36 -11.9 10.5
10:05 1018 30.06 848 25.04 2 35.6 38 -10.9 12.3
10:10 1018 30.06 848 25.04 2.2 35.9 34 -12.3 9.9
10:15 1018 30.06 848 25.04 2.3 36.2 36 -11.2 11.9
10:20 1018 30.06 848 25.04 2.1 35.8 38 -10.8 12.5
10:25 1018 30.06 848 25.04 2.3 36.2 35 -11.8 10.8
10:30 1018 30.06 848 25.04 2.9 37.3 35 -11.3 11.7
10:35 1018 30.06 848 25.04 3 37.3 36 -10.7 12.7
10:40 1018 30.06 848 25.04 3.1 37.6 32 -12.1 10.2
10:45 1018 30.06 848 25.04 2.7 36.9 32 -12.4 9.6
10:50 1018 30.06 848 25.04 3.1 37.7 31 -12.3 9.9
10:55 1018 30.06 847 25.01 3.6 38.5 33 -11.2 11.9
11:00 1018 30.06 848 25.04 3.9 39 33 -10.9 12.4
11:05 1018 30.06 848 25.04 3.6 38.5 32 -11.5 11.3
11:10 1018 30.06 847 25.01 3.3 38 32 -11.8 10.8
11:15 1018 30.06 847 25.01 3.1 37.6 31 -12.6 9.3
11:20 1018 30.06 847 25.01 3.1 37.6 34 -11.4 11.5
11:25 1018 30.06 847 25.01 4.1 39.3 31 -11.7 10.9
11:30 1018 30.06 847 25.01 4 39.1 32 -11.4 11.6
11:35 1018 30.06 847 25.01 3.9 39 29 -12.5 9.4
11:40 1018 30.06 847 25.01 4.1 39.3 32 -11.1 12
11:45 1018 30.06 847 25.01 4 39.1 31 -11.7 11
11:50 1018 30.06 847 25.01 3.6 38.5 30 -12.6 9.4
11:55 1018 30.06 847 25.01 4.1 39.4 30 -12.1 10.1
12:00 1018 30.06 847 25.01 4.4 39.9 29 -12.3 9.8
12:05 1018 30.06 847 25.01 4.1 39.3 30 -12.1 10.2
12:10 1018 30.06 847 25.01 4.1 39.4 29 -12.2 10
12:15 1018 30.06 847 25.01 4.1 39.4 29 -12.3 9.9
12:20 1018 30.06 847 25.01 4.6 40.3 28 -12.3 9.8
12:25 1018 30.06 847 25.01 4.6 40.4 29 -12.1 10.3
12:30 1018 30.06 847 25.01 4.9 40.9 27 -12.7 9.1
12:35 1018 30.06 847 25.01 5 41 27 -12.3 9.8
12:40 1017 30.03 847 25.01 5.2 41.4 28 -12 10.4
12:45 1017 30.03 847 25.01 5.5 41.9 27 -12.3 9.9
12:50 1017 30.03 847 25.01 5.3 41.6 25 -13.1 8.5
12:55 1017 30.03 847 25.01 5.3 41.5 27 -12.3 9.8
13:00 1017 30.03 847 25.01 6 42.8 26 -12.1 10.3
13:05 1017 30.03 847 25.01 6.5 43.7 24 -12.8 8.9
13:10 1017 30.03 846 24.98 6.4 43.5 23 -13.3 8.1
13:15 1017 30.03 846 24.98 6.1 43 25 -12.4 9.6
13:20 1017 30.03 846 24.98 6.4 43.6 23 -13.3 8.1
13:25 1017 30.03 846 24.98 6.8 44.2 21 -14.1 6.6
13:30 1017 30.03 847 25.01 6.5 43.7 23 -13.5 7.7
13:35 1017 30.03 846 24.98 6.1 43.1 23 -13.3 8.1
13:40 1017 30.03 846 24.98 6.4 43.5 23 -13.2 8.2
13:45 1017 30.03 846 24.98 6.6 43.9 23 -13.3 8
13:50 1017 30.03 846 24.98 6.5 43.7 22 -13.6 7.6
13:55 1017 30.03 846 24.98 6.4 43.5 22 -13.7 7.4
14:00 1017 30.03 846 24.98 6.5 43.6 21 -14.2 6.4
14:05 1017 30.03 846 24.98 7.1 44.7 21 -14 6.7
14:10 1017 30.03 846 24.98 7.2 45 21 -14 6.9
14:15 1017 30.03 846 24.98 7.8 46 21 -13.5 7.7
14:20 1017 30.03 846 24.98 8 46.4 19 -14.1 6.7
14:25 1017 30.03 846 24.98 7.9 46.1 20 -14.1 6.6
14:30 1017 30.03 846 24.98 7.6 45.6 20 -13.9 7
14:35 1017 30.03 846 24.98 8.1 46.6 20 -13.8 7.2
14:40 1017 30.03 846 24.98 7.9 46.1 19 -14.2 6.4
14:45 1017 30.03 846 24.98 8.4 47.1 19 -14 6.9
14:50 1017 30.03 846 24.98 8.7 47.6 19 -13.7 7.4
14:55 1017 30.03 846 24.98 8.9 48.1 20 -12.8 8.9
15:00 1017 30.03 846 24.98 8.9 48 17 -14.6 5.7
15:05 1017 30.03 846 24.98 9.1 48.3 17 -14.7 5.5
15:10 1017 30.03 846 24.98 8.7 47.7 17 -14.8 5.4
15:15 1017 30.03 846 24.98 8.6 47.5 18 -14.6 5.6
15:20 1017 30.03 846 24.98 7.8 46.1 19 -14.5 5.9
15:25 1017 30.03 846 24.98 7.7 45.8 19 -14.3 6.2
15:30 1017 30.03 846 24.98 8.1 46.5 20 -13.7 7.3
15:35 1017 30.03 846 24.98 8.5 47.4 19 -14.2 6.5
15:40 1017 30.03 846 24.98 8.7 47.7 18 -14.1 6.5
15:45 1016 30 846 24.98 9.2 48.5 18 -14.1 6.6
15:50 1016 30 846 24.98 9.4 49 17 -14.3 6.3
15:55 1016 30 846 24.98 9.3 48.8 17 -14.8 5.4
16:00 1017 30.03 846 24.98 9.3 48.7 17 -14.4 6.1
16:05 1017 30.03 846 24.98 9.5 49.1 18 -14.1 6.7
16:10 1017 30.03 846 24.98 9.7 49.4 17 -14.6 5.8
16:15 1016 30 846 24.98 9.4 49 17 -14.3 6.2
16:20 1016 30 846 24.98 9.6 49.2 16 -14.9 5.3
16:25 1016 30 846 24.98 9.9 49.9 17 -14.3 6.2
16:30 1016 30 846 24.98 10.2 50.4 15 -15.1 4.9
16:35 1017 30.03 846 24.98 10.1 50.1 15 -15.1 4.8
16:40 1017 30.03 846 24.98 9.8 49.6 16 -15.2 4.6
16:45 1017 30.03 846 24.98 9.7 49.5 16 -14.6 5.7
16:50 1017 30.03 846 24.98 9.8 49.6 15 -15.4 4.3
16:55 1017 30.03 846 24.98 9.8 49.6 16 -14.9 5.1
17:00 1017 30.03 846 24.98 9.9 49.8 17 -14.3 6.2
17:05 1017 30.03 846 24.98 10 49.9 17 -13.8 7.2
17:10 1017 30.03 846 24.98 9.9 49.8 18 -13.6 7.5
17:15 1017 30.03 846 24.98 9.7 49.4 17 -14.5 6
17:20 1017 30.03 846 24.98 9.3 48.7 18 -14 6.8
17:25 1017 30.03 846 24.98 9.3 48.7 18 -14.2 6.4
17:30 1017 30.03 846 24.98 9.3 48.7 18 -13.7 7.4
17:35 1017 30.03 846 24.98 9 48.3 19 -13.5 7.7
17:40 1017 30.03 846 24.98 8.9 48.1 19 -13.8 7.1
17:45 1017 30.03 846 24.98 8.7 47.7 19 -13.6 7.5
17:50 1017 30.03 846 24.98 8.7 47.6 20 -13.2 8.2
17:55 1017 30.03 846 24.98 8.8 47.8 20 -12.9 8.8
18:00 1017 30.03 846 24.98 8.7 47.6 21 -12.5 9.5
18:05 1017 30.03 846 24.98 8.6 47.4 21 -12.7 9.2
18:10 1017 30.03 846 24.98 8.3 47 21 -13 8.6
18:15 1017 30.03 846 24.98 8.2 46.7 21 -12.9 8.8
18:20 1017 30.03 846 24.98 8.1 46.5 22 -12.6 9.2
18:25 1017 30.03 846 24.98 8 46.3 22 -12.7 9.1
18:30 1017 30.03 846 24.98 7.9 46.1 22 -12.8 8.9
18:35 1017 30.03 846 24.98 7.7 45.9 22 -12.6 9.3
18:40 1017 30.03 846 24.98 7.7 45.8 23 -12.3 9.9
18:45 1017 30.03 846 24.98 7.6 45.7 23 -12.2 10
18:50 1017 30.03 846 24.98 7.5 45.5 24 -11.9 10.5
18:55 1017 30.03 846 24.98 7.4 45.4 24 -11.9 10.5
19:00 1017 30.03 846 24.98 7.3 45.2 24 -11.9 10.5
19:05 1017 30.03 846 24.98 7.2 45 24 -11.9 10.5
19:10 1017 30.03 847 25.01 7.3 45.1 24 -12 10.5
19:15 1017 30.03 847 25.01 7.2 44.9 24 -12 10.5
19:20 1017 30.03 847 25.01 7.1 44.8 24 -11.9 10.6
19:25 1017 30.03 847 25.01 7.1 44.7 24 -12.1 10.2
19:30 1018 30.06 847 25.01 7 44.6 25 -11.8 10.7
19:35 1018 30.06 847 25.01 7 44.6 25 -11.8 10.7
19:40 1018 30.06 847 25.01 6.9 44.5 25 -11.6 11.1
19:45 1018 30.06 847 25.01 6.9 44.4 25 -11.8 10.8
19:50 1018 30.06 847 25.01 6.9 44.4 25 -11.7 11
19:55 1018 30.06 847 25.01 6.9 44.4 25 -11.6 11.1
20:00 1018 30.06 847 25.01 6.8 44.2 26 -11.6 11.1
20:05 1018 30.06 847 25.01 6.8 44.2 26 -11.6 11.2
20:10 1018 30.06 847 25.01 6.7 44.1 26 -11.6 11.2
20:15 1018 30.06 848 25.04 6.8 44.2 26 -11.3 11.6
20:20 1018 30.06 848 25.04 6.7 44 27 -10.9 12.3
20:25 1018 30.06 848 25.04 6.5 43.8 28 -10.6 13
20:30 1019 30.09 848 25.04 6.4 43.5 28 -10.8 12.6
20:35 1019 30.09 848 25.04 6.4 43.5 28 -10.9 12.3
20:40 1019 30.09 848 25.04 6.4 43.5 27 -11.1 12.1
20:45 1019 30.09 848 25.04 6.4 43.6 28 -10.8 12.5
20:50 1019 30.09 848 25.04 6.5 43.6 27 -11 12.1
20:55 1019 30.09 848 25.04 6.4 43.6 27 -11.2 11.9
21:00 1019 30.09 848 25.04 6.4 43.5 27 -11.2 11.9
21:05 1019 30.09 848 25.04 6.4 43.4 27 -11.2 11.8
21:10 1019 30.09 848 25.04 6.3 43.4 28 -11.1 12.1
21:15 1019 30.09 848 25.04 6.3 43.3 28 -11 12.2
21:20 1019 30.09 848 25.04 6.2 43.2 28 -10.8 12.5
21:25 1019 30.09 848 25.04 6.1 43.1 28 -10.9 12.4
21:30 1019 30.09 849 25.07 6.1 43 28 -10.9 12.3
21:35 1019 30.09 849 25.07 6.1 42.9 29 -10.7 12.7
21:40 1019 30.09 849 25.07 6 42.7 32 -9.7 14.5
21:45 1020 30.12 849 25.07 5.6 42.2 32 -10 14.1
21:50 1020 30.12 849 25.07 5.6 42.1 31 -10.3 13.4
21:55 1020 30.12 849 25.07 5.6 42.2 31 -10.2 13.6
22:00 1020 30.12 849 25.07 5.6 42.1 31 -10 13.9
22:05 1020 30.12 849 25.07 5.7 42.2 31 -10.3 13.5
22:10 1020 30.12 849 25.07 5.7 42.2 31 -10.2 13.7
22:15 1020 30.12 849 25.07 5.7 42.2 32 -10 14
22:20 1020 30.12 849 25.07 5.6 42.1 31 -10.3 13.5
22:25 1020 30.12 849 25.07 5.5 41.9 31 -10.2 13.6
22:30 1020 30.12 849 25.07 5.4 41.7 32 -10.1 13.8
22:35 1020 30.12 849 25.07 5.3 41.6 32 -10.2 13.7
22:40 1020 30.12 849 25.07 5.2 41.4 32 -10.1 13.8
22:45 1020 30.12 850 25.1 5.2 41.3 32 -10.1 13.9
22:50 1020 30.12 850 25.1 5.1 41.2 33 -10 14.1
22:55 1020 30.12 850 25.1 5.1 41.1 33 -9.9 14.1
23:00 1020 30.12 850 25.1 4.9 40.8 33 -9.9 14.2
23:05 1021 30.15 850 25.1 4.8 40.7 34 -9.8 14.4
23:10 1021 30.15 850 25.1 4.8 40.6 34 -9.7 14.5
23:15 1021 30.15 850 25.1 4.8 40.6 34 -9.7 14.5
23:20 1021 30.15 850 25.1 4.8 40.6 35 -9.5 14.9
23:25 1021 30.15 850 25.1 4.7 40.5 35 -9.7 14.6
23:30 1021 30.15 850 25.1 4.6 40.3 34 -9.9 14.1
23:35 1021 30.15 850 25.1 4.6 40.3 35 -9.8 14.4
23:40 1021 30.15 850 25.1 4.4 40 39 -8.3 17
23:45 1021 30.15 850 25.1 3.9 39.1 41 -8.2 17.3
23:50 1021 30.15 850 25.1 3.8 38.8 42 -8.1 17.4
23:55 1021 30.15 850 25.1 3.7 38.6 40 -8.6 16.5
24:00 1021 30.15 850 25.1 3.8 38.8 40 -8.7 16.3